Time;durP1;ratioP1;P1;durP2;ratioP2;P2;SDS_P1;SDS_P2;PMS_P1;PMS_P2;Temp;Humidity;BMP_temperature;BMP_pressure;BME280_temperature;BME280_humidity;BME280_pressure;Samples;Min_cycle;Max_cycle;Signal;HPM_P1;HPM_P2
2021/12/12 00:02:17;;;;;;;15.18;13.85;;;;;;;;;;4951244;28;20035;-70
2021/12/12 00:04:46;;;;;;;15.13;13.73;;;;;;;;;;4948691;28;20035;-68
2021/12/12 00:07:18;;;;;;;14.27;13.18;;;;;;;;;;4944751;28;20034;-68
2021/12/12 00:09:46;;;;;;;15.10;13.90;;;;;;;;;;4941293;28;20035;-67
2021/12/12 00:12:16;;;;;;;14.85;13.65;;;;;;;;;;4949527;28;20042;-68
2021/12/12 00:14:43;;;;;;;14.70;13.30;;;;;;;;;;4951812;28;20043;-67
2021/12/12 00:17:11;;;;;;;13.77;12.77;;;;;;;;;;4957347;28;20031;-67
2021/12/12 00:19:37;;;;;;;14.52;13.00;;;;;;;;;;4951701;28;20035;-67
2021/12/12 00:22:08;;;;;;;14.25;12.85;;;;;;;;;;4953691;28;20034;-67
2021/12/12 00:24:34;;;;;;;14.50;13.30;;;;;;;;;;4961688;28;20841;-68
2021/12/12 00:27:01;;;;;;;14.93;13.73;;;;;;;;;;4953103;28;20039;-68
2021/12/12 00:29:30;;;;;;;14.43;13.32;;;;;;;;;;4953324;28;20031;-68
2021/12/12 00:31:59;;;;;;;15.20;13.85;;;;;;;;;;4952139;28;20046;-68
2021/12/12 00:34:27;;;;;;;15.93;14.70;;;;;;;;;;4947861;29;20462;-68
2021/12/12 00:36:54;;;;;;;15.20;13.98;;;;;;;;;;4943411;28;20062;-68
2021/12/12 00:39:27;;;;;;;15.52;14.23;;;;;;;;;;4947025;29;20043;-68
2021/12/12 00:42:00;;;;;;;14.88;13.73;;;;;;;;;;4948780;29;20045;-68
2021/12/12 00:44:28;;;;;;;14.55;13.35;;;;;;;;;;4942221;28;20115;-68
2021/12/12 00:46:59;;;;;;;15.05;13.85;;;;;;;;;;4945372;29;20031;-67
2021/12/12 00:49:25;;;;;;;15.40;14.20;;;;;;;;;;4933033;29;20035;-70
2021/12/12 00:51:53;;;;;;;15.02;13.75;;;;;;;;;;4951403;28;20054;-69
2021/12/12 00:54:19;;;;;;;15.80;14.52;;;;;;;;;;4939179;28;20043;-69
2021/12/12 00:56:47;;;;;;;16.30;14.85;;;;;;;;;;4943460;29;20054;-69
2021/12/12 00:59:14;;;;;;;15.80;14.48;;;;;;;;;;4932142;29;20035;-69
2021/12/12 01:01:46;;;;;;;15.10;13.82;;;;;;;;;;4939816;28;20117;-69
2021/12/12 01:04:17;;;;;;;14.73;13.63;;;;;;;;;;4945021;29;20044;-69
2021/12/12 01:06:45;;;;;;;14.95;13.77;;;;;;;;;;4946225;28;20036;-70
2021/12/12 01:09:16;;;;;;;14.93;13.63;;;;;;;;;;4954659;28;20051;-69
2021/12/12 01:11:45;;;;;;;15.25;13.95;;;;;;;;;;4948577;28;20040;-70
2021/12/12 01:14:15;;;;;;;14.82;13.70;;;;;;;;;;4950824;28;20032;-69
2021/12/12 01:16:59;;;;;;;14.90;13.73;;;;;;;;;;4950692;28;20035;-69
2021/12/12 01:19:32;;;;;;;15.20;13.93;;;;;;;;;;4947548;28;20058;-69
2021/12/12 01:22:03;;;;;;;15.60;14.40;;;;;;;;;;4960949;28;20050;-70
2021/12/12 01:24:36;;;;;;;15.32;14.15;;;;;;;;;;4958053;28;20035;-68
2021/12/12 01:27:06;;;;;;;15.25;14.00;;;;;;;;;;4952162;28;20493;-68
2021/12/12 01:29:32;;;;;;;15.43;14.13;;;;;;;;;;4952019;28;20042;-68
2021/12/12 01:32:01;;;;;;;14.88;13.73;;;;;;;;;;4954647;28;20498;-69
2021/12/12 01:34:30;;;;;;;14.88;13.65;;;;;;;;;;4954199;28;20038;-68
2021/12/12 01:37:23;;;;;;;15.10;13.80;;;;;;;;;;4955946;28;20513;-70
2021/12/12 01:39:50;;;;;;;16.70;15.25;;;;;;;;;;4956287;28;20050;-68
2021/12/12 01:42:28;;;;;;;16.48;14.88;;;;;;;;;;4954933;28;20039;-70
2021/12/12 01:45:06;;;;;;;16.65;14.98;;;;;;;;;;4955014;28;20078;-70
2021/12/12 01:47:36;;;;;;;15.65;14.25;;;;;;;;;;4952438;28;20086;-70
2021/12/12 01:50:07;;;;;;;17.23;15.63;;;;;;;;;;4953907;28;20055;-70
2021/12/12 01:52:34;;;;;;;16.45;15.05;;;;;;;;;;4955472;28;20088;-69
2021/12/12 01:55:27;;;;;;;16.05;14.55;;;;;;;;;;4948952;28;20034;-69
2021/12/12 01:57:56;;;;;;;15.93;14.38;;;;;;;;;;4957238;28;20050;-69
2021/12/12 02:00:33;;;;;;;16.55;15.10;;;;;;;;;;4956107;28;20038;-69
2021/12/12 02:02:59;;;;;;;19.55;15.98;;;;;;;;;;4957935;28;20254;-69
2021/12/12 02:05:27;;;;;;;16.75;14.98;;;;;;;;;;4954353;28;20038;-70
2021/12/12 02:08:03;;;;;;;16.17;14.82;;;;;;;;;;4954064;28;20460;-69
2021/12/12 02:10:54;;;;;;;16.77;15.48;;;;;;;;;;4957711;28;20483;-69
2021/12/12 02:13:23;;;;;;;16.90;15.20;;;;;;;;;;4955112;28;20050;-69
2021/12/12 02:15:55;;;;;;;16.42;15.02;;;;;;;;;;4954378;28;20575;-69
2021/12/12 02:18:28;;;;;;;15.98;14.50;;;;;;;;;;4952295;28;20039;-69
2021/12/12 02:21:55;;;;;;;15.80;14.50;;;;;;;;;;4952660;28;20032;-69
2021/12/12 02:35:27;;;;;;;16.27;14.98;;;;;;;;;;4916603;29;20094;-69
2021/12/12 02:37:56;;;;;;;15.93;14.63;;;;;;;;;;4920848;29;20096;-69
2021/12/12 02:40:29;;;;;;;15.27;13.98;;;;;;;;;;4916957;29;20039;-69
2021/12/12 02:42:55;;;;;;;16.00;14.60;;;;;;;;;;4919646;29;20052;-69
2021/12/12 02:45:23;;;;;;;16.70;15.27;;;;;;;;;;4920644;29;20055;-69
2021/12/12 02:47:57;;;;;;;16.45;15.15;;;;;;;;;;4925729;29;20044;-69
2021/12/12 02:50:28;;;;;;;17.00;15.32;;;;;;;;;;4923430;29;20083;-70
2021/12/12 02:53:06;;;;;;;19.42;15.25;;;;;;;;;;4923365;29;20086;-70
2021/12/12 02:55:36;;;;;;;16.55;15.07;;;;;;;;;;4919665;29;20044;-69
2021/12/12 02:58:02;;;;;;;;;;;;;;;;;;4922719;29;20036;-70
2021/12/12 03:00:32;;;;;;;14.70;13.52;;;;;;;;;;4918698;29;19919;-70
2021/12/12 03:03:00;;;;;;;14.85;13.73;;;;;;;;;;4932677;28;20058;-70
2021/12/12 03:05:36;;;;;;;14.63;13.43;;;;;;;;;;4950798;28;20490;-70
2021/12/12 03:08:03;;;;;;;14.48;13.38;;;;;;;;;;4956338;28;20035;-70
2021/12/12 03:10:35;;;;;;;14.10;12.50;;;;;;;;;;4952199;28;20046;-70
2021/12/12 03:13:02;;;;;;;14.55;13.27;;;;;;;;;;4951317;28;20572;-69
2021/12/12 03:15:33;;;;;;;13.60;12.60;;;;;;;;;;4953996;28;20051;-69
2021/12/12 03:18:02;;;;;;;13.93;12.93;;;;;;;;;;4954658;28;20057;-70
2021/12/12 03:20:33;;;;;;;14.30;12.88;;;;;;;;;;4952498;28;20312;-70
2021/12/12 03:23:08;;;;;;;14.43;13.32;;;;;;;;;;4946289;28;20039;-70
2021/12/12 03:25:37;;;;;;;14.68;13.48;;;;;;;;;;4938420;29;20039;-69
2021/12/12 03:28:05;;;;;;;14.55;13.32;;;;;;;;;;4938218;28;20094;-70
2021/12/12 03:30:32;;;;;;;14.63;13.52;;;;;;;;;;4947767;29;20074;-69
2021/12/12 03:32:57;;;;;;;15.13;13.65;;;;;;;;;;4945345;29;20044;-69
2021/12/12 03:35:23;;;;;;;14.43;13.02;;;;;;;;;;4944703;29;20047;-69
2021/12/12 03:37:49;;;;;;;15.23;13.75;;;;;;;;;;4935659;28;20043;-69
2021/12/12 03:40:21;;;;;;;15.63;14.15;;;;;;;;;;4944562;29;20114;-68
2021/12/12 03:42:49;;;;;;;14.60;13.40;;;;;;;;;;4939640;29;20503;-69
2021/12/12 03:45:17;;;;;;;14.98;13.55;;;;;;;;;;4937043;28;20106;-69
2021/12/12 03:47:48;;;;;;;14.85;13.63;;;;;;;;;;4944956;28;20074;-69
2021/12/12 03:50:28;;;;;;;14.07;12.98;;;;;;;;;;4942988;28;20546;-69
2021/12/12 03:52:54;;;;;;;15.00;13.70;;;;;;;;;;4937419;29;20087;-69
2021/12/12 03:55:21;;;;;;;15.20;13.98;;;;;;;;;;4933000;29;20065;-69
2021/12/12 03:57:48;;;;;;;15.90;14.55;;;;;;;;;;4943720;28;20085;-69
2021/12/12 04:00:26;;;;;;;16.77;15.30;;;;;;;;;;4933782;28;20044;-69
2021/12/12 04:02:52;;;;;;;15.88;14.00;;;;;;;;;;4945880;29;20031;-68
2021/12/12 04:05:18;;;;;;;15.73;14.30;;;;;;;;;;4942229;29;20415;-69
2021/12/12 04:07:44;;;;;;;15.85;14.20;;;;;;;;;;4946444;28;20054;-69
2021/12/12 04:10:13;;;;;;;14.88;13.35;;;;;;;;;;4942302;28;20053;-69
2021/12/12 04:12:40;;;;;;;15.32;13.90;;;;;;;;;;4953129;23;20038;-70
2021/12/12 04:15:06;;;;;;;15.65;14.07;;;;;;;;;;4945660;28;20146;-70
2021/12/12 04:17:32;;;;;;;15.55;14.27;;;;;;;;;;4944081;29;20036;-70
2021/12/12 04:20:02;;;;;;;17.02;14.90;;;;;;;;;;4947451;29;20393;-70
2021/12/12 04:22:32;;;;;;;15.50;14.10;;;;;;;;;;4946242;28;20050;-70
2021/12/12 04:24:58;;;;;;;15.45;14.02;;;;;;;;;;4943403;29;20039;-70
2021/12/12 04:27:24;;;;;;;15.45;14.02;;;;;;;;;;4943084;29;20037;-70
2021/12/12 04:29:53;;;;;;;14.77;13.68;;;;;;;;;;4941236;28;20041;-70
2021/12/12 04:32:23;;;;;;;15.40;14.07;;;;;;;;;;4948957;29;20035;-69
2021/12/12 04:34:56;;;;;;;14.93;13.65;;;;;;;;;;4946781;29;20119;-69
2021/12/12 04:37:22;;;;;;;15.48;13.93;;;;;;;;;;4943891;28;20402;-70
2021/12/12 04:39:53;;;;;;;15.57;13.93;;;;;;;;;;4946055;28;20054;-69
2021/12/12 04:42:24;;;;;;;16.05;14.70;;;;;;;;;;4947820;29;20565;-70
2021/12/12 04:45:07;;;;;;;16.70;15.20;;;;;;;;;;4931260;29;20518;-69
2021/12/12 04:50:49;;;;;;;16.53;15.23;;;;;;;;;;4948770;29;20520;-70
2021/12/12 04:53:30;;;;;;;15.93;14.55;;;;;;;;;;4958118;28;20136;-70
2021/12/12 04:56:16;;;;;;;16.52;15.13;;;;;;;;;;4950998;28;20062;-70
2021/12/12 04:58:48;;;;;;;16.08;14.88;;;;;;;;;;4948289;29;20069;-70
2021/12/12 05:01:19;;;;;;;15.50;14.20;;;;;;;;;;4950478;29;20051;-70
2021/12/12 05:03:55;;;;;;;16.63;15.18;;;;;;;;;;4951481;28;20050;-70
2021/12/12 05:06:28;;;;;;;15.57;14.27;;;;;;;;;;4952959;28;20031;-70
2021/12/12 05:09:04;;;;;;;15.73;14.32;;;;;;;;;;4944904;29;20036;-70
2021/12/12 05:11:50;;;;;;;17.40;15.50;;;;;;;;;;4945433;29;20139;-70
2021/12/12 05:14:22;;;;;;;15.73;14.13;;;;;;;;;;4951957;28;20038;-70
2021/12/12 05:16:53;;;;;;;15.50;14.18;;;;;;;;;;4951946;29;20035;-70
2021/12/12 05:19:24;;;;;;;14.77;13.48;;;;;;;;;;4941235;29;20038;-70
2021/12/12 05:21:56;;;;;;;15.65;14.23;;;;;;;;;;4940706;28;20047;-70
2021/12/12 05:24:25;;;;;;;15.95;14.55;;;;;;;;;;4949147;29;20039;-70
2021/12/12 05:26:56;;;;;;;15.35;14.02;;;;;;;;;;4940037;29;20546;-70
2021/12/12 05:29:43;;;;;;;15.25;13.82;;;;;;;;;;4962897;28;20047;-70
2021/12/12 05:32:09;;;;;;;15.77;14.38;;;;;;;;;;4951220;28;20069;-70
2021/12/12 05:34:38;;;;;;;14.82;13.60;;;;;;;;;;4942989;29;20123;-71
2021/12/12 05:37:05;;;;;;;14.45;13.25;;;;;;;;;;4946509;28;20078;-70
2021/12/12 05:39:33;;;;;;;15.32;13.95;;;;;;;;;;4951905;29;20105;-70
2021/12/12 05:41:59;;;;;;;16.77;15.20;;;;;;;;;;4942461;28;20074;-70
2021/12/12 05:44:27;;;;;;;17.25;15.65;;;;;;;;;;4937823;29;20086;-70
2021/12/12 05:46:59;;;;;;;15.52;14.30;;;;;;;;;;4947358;29;20039;-70
2021/12/12 05:49:25;;;;;;;16.27;14.68;;;;;;;;;;4946483;29;20032;-70
2021/12/12 05:51:51;;;;;;;15.63;14.32;;;;;;;;;;4954835;28;20046;-70
2021/12/12 05:54:17;;;;;;;15.00;13.60;;;;;;;;;;4935122;28;20479;-70
2021/12/12 05:56:43;;;;;;;15.60;14.20;;;;;;;;;;4947233;29;20035;-70
2021/12/12 05:59:10;;;;;;;16.60;14.90;;;;;;;;;;4950916;29;20039;-70
2021/12/12 06:01:38;;;;;;;15.52;14.00;;;;;;;;;;4947156;29;20027;-70
2021/12/12 06:04:04;;;;;;;16.77;15.00;;;;;;;;;;4948992;28;20050;-70
2021/12/12 06:06:35;;;;;;;16.27;14.90;;;;;;;;;;4948477;28;20031;-70
2021/12/12 06:09:04;;;;;;;15.73;14.32;;;;;;;;;;4944388;29;20035;-70
2021/12/12 06:11:32;;;;;;;14.63;13.52;;;;;;;;;;4938957;28;20398;-71
2021/12/12 06:13:59;;;;;;;15.30;14.10;;;;;;;;;;4952034;28;20046;-71
2021/12/12 06:16:26;;;;;;;15.05;13.85;;;;;;;;;;4943712;29;20534;-71
2021/12/12 06:19:00;;;;;;;15.35;14.05;;;;;;;;;;4947678;29;20074;-71
2021/12/12 06:21:26;;;;;;;14.95;13.75;;;;;;;;;;4950855;29;20050;-71
2021/12/12 06:23:53;;;;;;;15.77;14.15;;;;;;;;;;4949930;29;20202;-71
2021/12/12 06:26:19;;;;;;;15.57;14.18;;;;;;;;;;4935596;29;20153;-71
2021/12/12 06:28:46;;;;;;;15.02;13.93;;;;;;;;;;4939536;28;20049;-71
2021/12/12 06:31:12;;;;;;;15.65;14.35;;;;;;;;;;4950232;28;20553;-71
2021/12/12 06:33:39;;;;;;;16.13;14.75;;;;;;;;;;4951296;29;20035;-71
2021/12/12 06:36:07;;;;;;;14.90;13.70;;;;;;;;;;4944399;29;20039;-71
2021/12/12 06:38:33;;;;;;;14.68;13.48;;;;;;;;;;4937372;28;20047;-71
2021/12/12 06:40:59;;;;;;;15.40;13.90;;;;;;;;;;4950739;29;20043;-71
2021/12/12 06:43:25;;;;;;;16.02;14.68;;;;;;;;;;4951598;29;20035;-71
2021/12/12 06:45:52;;;;;;;16.40;14.73;;;;;;;;;;4946100;29;20040;-71
2021/12/12 06:48:19;;;;;;;16.02;14.43;;;;;;;;;;4951658;29;20420;-71
2021/12/12 06:50:49;;;;;;;15.98;14.57;;;;;;;;;;4948096;28;20043;-72
2021/12/12 06:53:18;;;;;;;16.73;15.02;;;;;;;;;;4943852;29;21829;-71
2021/12/12 06:55:46;;;;;;;52.55;41.40;;;;;;;;;;4953826;28;20048;-71
2021/12/12 06:58:17;;;;;;;265.42;135.25;;;;;;;;;;4948271;28;20554;-72
2021/12/12 07:00:47;;;;;;;26.77;22.52;;;;;;;;;;4946414;28;20402;-71
2021/12/12 07:03:14;;;;;;;26.38;23.65;;;;;;;;;;4947120;29;20035;-71
2021/12/12 07:05:40;;;;;;;30.30;27.10;;;;;;;;;;4942401;28;20174;-71
2021/12/12 07:08:06;;;;;;;18.70;16.90;;;;;;;;;;4946925;29;20542;-69
2021/12/12 07:10:33;;;;;;;33.90;30.50;;;;;;;;;;4945735;29;20063;-70
2021/12/12 07:12:59;;;;;;;19.13;17.20;;;;;;;;;;4939797;29;20047;-70
2021/12/12 07:15:32;;;;;;;16.52;14.88;;;;;;;;;;4936475;28;20201;-70
2021/12/12 07:18:04;;;;;;;16.02;14.63;;;;;;;;;;4947268;28;20067;-70
2021/12/12 07:20:30;;;;;;;16.25;14.60;;;;;;;;;;4939186;29;20376;-70
2021/12/12 07:22:56;;;;;;;15.98;14.60;;;;;;;;;;4937854;29;20039;-70
2021/12/12 07:25:22;;;;;;;16.75;14.90;;;;;;;;;;4958191;28;20057;-70
2021/12/12 07:27:51;;;;;;;15.55;14.20;;;;;;;;;;4942904;28;20043;-70
2021/12/12 07:30:18;;;;;;;17.75;15.02;;;;;;;;;;4937811;28;20046;-69
2021/12/12 07:32:44;;;;;;;21.80;16.08;;;;;;;;;;4944853;28;20134;-71
2021/12/12 07:35:13;;;;;;;18.70;16.75;;;;;;;;;;4948301;29;20134;-69
2021/12/12 07:37:40;;;;;;;21.10;18.07;;;;;;;;;;4942463;29;20045;-70
2021/12/12 07:40:08;;;;;;;33.53;21.17;;;;;;;;;;4937600;29;20482;-70
2021/12/12 07:42:34;;;;;;;27.73;18.52;;;;;;;;;;4941808;28;20410;-69
2021/12/12 07:45:01;;;;;;;28.90;20.33;;;;;;;;;;4949420;29;20039;-69
2021/12/12 07:47:28;;;;;;;22.13;18.42;;;;;;;;;;4940848;29;20289;-70
2021/12/12 07:49:54;;;;;;;21.35;17.40;;;;;;;;;;4932760;29;20039;-70
2021/12/12 07:52:25;;;;;;;17.98;16.27;;;;;;;;;;4939251;28;20376;-70
2021/12/12 07:54:51;;;;;;;17.42;15.70;;;;;;;;;;4948596;29;20078;-69
2021/12/12 07:57:19;;;;;;;17.48;15.77;;;;;;;;;;4936103;29;20134;-70
2021/12/12 07:59:46;;;;;;;16.90;15.05;;;;;;;;;;4936475;28;20035;-69
2021/12/12 08:02:14;;;;;;;16.15;14.60;;;;;;;;;;4941776;28;20340;-69
2021/12/12 08:04:40;;;;;;;17.83;16.10;;;;;;;;;;4954809;28;20035;-70
2021/12/12 08:07:13;;;;;;;17.15;15.63;;;;;;;;;;4944673;28;20038;-70
2021/12/12 08:09:42;;;;;;;15.55;14.15;;;;;;;;;;4943393;29;20035;-69
2021/12/12 08:12:15;;;;;;;19.52;17.48;;;;;;;;;;4933741;29;20112;-70
2021/12/12 08:14:42;;;;;;;16.05;14.73;;;;;;;;;;4953498;28;20039;-70
2021/12/12 08:17:10;;;;;;;14.45;13.00;;;;;;;;;;4936454;29;20077;-71
2021/12/12 08:19:36;;;;;;;14.75;13.20;;;;;;;;;;4941962;29;20051;-70
2021/12/12 08:22:08;;;;;;;13.70;12.32;;;;;;;;;;4931930;29;20040;-70
2021/12/12 08:24:35;;;;;;;13.88;12.73;;;;;;;;;;4937958;29;20581;-70
2021/12/12 08:27:04;;;;;;;14.18;12.98;;;;;;;;;;4939255;28;20071;-71
2021/12/12 08:29:31;;;;;;;14.03;12.83;;;;;;;;;;4937623;29;20043;-70
2021/12/12 08:31:58;;;;;;;14.77;13.65;;;;;;;;;;4940906;28;20287;-70
2021/12/12 08:34:25;;;;;;;15.30;13.95;;;;;;;;;;4942866;29;20157;-70
2021/12/12 08:36:53;;;;;;;18.45;16.75;;;;;;;;;;4938222;28;20505;-70
2021/12/12 08:39:19;;;;;;;14.73;13.52;;;;;;;;;;4940286;29;20039;-71
2021/12/12 08:41:49;;;;;;;15.50;13.98;;;;;;;;;;4945268;29;20043;-71
2021/12/12 08:44:15;;;;;;;14.73;13.52;;;;;;;;;;4935670;29;20044;-71
2021/12/12 08:46:44;;;;;;;14.52;13.38;;;;;;;;;;4943162;28;20389;-70
2021/12/12 08:49:11;;;;;;;16.48;14.77;;;;;;;;;;4945412;29;20394;-71
2021/12/12 08:51:45;;;;;;;15.32;13.75;;;;;;;;;;4934418;29;20566;-70
2021/12/12 08:54:22;;;;;;;15.10;13.90;;;;;;;;;;4941223;28;20027;-70
2021/12/12 08:56:55;;;;;;;13.90;12.85;;;;;;;;;;4954945;28;20051;-70
2021/12/12 08:59:26;;;;;;;14.07;12.95;;;;;;;;;;4934593;28;20118;-70
2021/12/12 09:01:55;;;;;;;14.65;13.50;;;;;;;;;;4940099;28;20687;-70
2021/12/12 09:04:21;;;;;;;;;;;;;;;;;;4926904;29;20050;-71
2021/12/12 09:06:57;;;;;;;14.57;13.43;;;;;;;;;;4932460;29;19914;-70
2021/12/12 09:09:28;;;;;;;15.40;14.10;;;;;;;;;;4934814;28;20035;-71
2021/12/12 09:12:20;;;;;;;14.55;13.38;;;;;;;;;;4937692;28;20035;-70
2021/12/12 09:14:53;;;;;;;13.35;12.25;;;;;;;;;;4943398;28;20051;-71
2021/12/12 09:17:26;;;;;;;13.48;12.48;;;;;;;;;;4933197;28;20047;-71
2021/12/12 09:20:17;;;;;;;12.90;11.95;;;;;;;;;;4935751;29;20122;-69
2021/12/12 09:23:06;;;;;;;14.38;13.23;;;;;;;;;;4940035;29;20403;-71
2021/12/12 09:25:50;;;;;;;12.93;11.98;;;;;;;;;;4936242;29;20031;-70
2021/12/12 09:28:40;;;;;;;13.77;12.60;;;;;;;;;;4942954;29;20558;-71
2021/12/12 09:31:13;;;;;;;14.82;13.63;;;;;;;;;;4939480;28;20166;-69
2021/12/12 09:33:45;;;;;;;13.35;12.43;;;;;;;;;;4942923;28;20503;-70
2021/12/12 09:36:15;;;;;;;13.95;12.90;;;;;;;;;;4938867;28;20039;-69
2021/12/12 09:39:06;;;;;;;13.68;12.68;;;;;;;;;;4954179;28;20523;-70
2021/12/12 09:42:03;;;;;;;14.20;13.10;;;;;;;;;;4939373;29;20331;-70
2021/12/12 09:45:03;;;;;;;12.75;11.95;;;;;;;;;;4944054;28;20049;-71
2021/12/12 09:48:15;;;;;;;13.75;12.73;;;;;;;;;;4945160;29;20117;-71
2021/12/12 09:54:00;;;;;;;13.30;12.23;;;;;;;;;;4955274;28;20051;-70
2021/12/12 09:56:56;;;;;;;13.68;12.57;;;;;;;;;;4940150;29;20039;-70
2021/12/12 09:59:44;;;;;;;14.25;13.10;;;;;;;;;;4961619;28;20075;-70
2021/12/12 10:02:25;;;;;;;13.00;12.10;;;;;;;;;;4942137;28;20035;-70
2021/12/12 10:05:19;;;;;;;13.10;12.07;;;;;;;;;;4945951;29;20047;-70
2021/12/12 10:08:28;;;;;;;13.25;12.25;;;;;;;;;;4945587;29;20053;-70
2021/12/12 10:11:22;;;;;;;13.32;12.23;;;;;;;;;;4922423;28;20039;-70
2021/12/12 10:13:57;;;;;;;13.30;12.35;;;;;;;;;;4947903;29;20122;-70
2021/12/12 10:17:00;;;;;;;12.88;11.88;;;;;;;;;;4931610;29;20052;-67
2021/12/12 10:19:35;;;;;;;13.27;12.30;;;;;;;;;;4929961;29;20075;-67
2021/12/12 10:22:45;;;;;;;12.85;11.95;;;;;;;;;;4931280;29;20459;-68
2021/12/12 10:25:14;;;;;;;12.65;11.75;;;;;;;;;;4930121;29;20058;-67
2021/12/12 10:27:51;;;;;;;13.63;12.60;;;;;;;;;;4930246;29;20402;-70
2021/12/12 10:30:24;;;;;;;14.18;13.07;;;;;;;;;;4927263;29;20043;-69
2021/12/12 10:33:03;;;;;;;13.07;12.13;;;;;;;;;;4934750;29;20163;-69
2021/12/12 10:35:36;;;;;;;12.80;11.90;;;;;;;;;;4928073;29;20032;-70
2021/12/12 10:38:08;;;;;;;14.15;12.98;;;;;;;;;;4928015;29;20237;-68
2021/12/12 10:40:38;;;;;;;12.90;12.00;;;;;;;;;;4937922;29;20047;-69
2021/12/12 10:43:12;;;;;;;39.75;20.15;;;;;;;;;;4930604;29;20054;-68
2021/12/12 10:45:46;;;;;;;15.23;13.82;;;;;;;;;;4930012;29;20043;-68
2021/12/12 10:48:19;;;;;;;13.25;12.07;;;;;;;;;;4929126;29;20032;-68
2021/12/12 10:50:57;;;;;;;11.90;10.93;;;;;;;;;;4927368;29;20136;-67
2021/12/12 10:54:00;;;;;;;12.90;11.90;;;;;;;;;;4928148;29;20047;-68
2021/12/12 10:56:38;;;;;;;12.50;11.60;;;;;;;;;;4928975;29;20361;-67
2021/12/12 10:59:17;;;;;;;12.27;11.43;;;;;;;;;;4933347;29;20075;-68
2021/12/12 11:01:46;;;;;;;12.68;11.82;;;;;;;;;;4927338;29;20062;-69
2021/12/12 11:04:21;;;;;;;12.85;11.85;;;;;;;;;;4929891;29;20038;-67
2021/12/12 11:07:03;;;;;;;12.82;11.93;;;;;;;;;;4931184;28;20315;-69
2021/12/12 11:09:36;;;;;;;11.82;11.02;;;;;;;;;;4928401;29;20043;-69
2021/12/12 11:12:24;;;;;;;11.48;10.63;;;;;;;;;;4928505;29;20558;-67
2021/12/12 11:15:02;;;;;;;11.57;10.77;;;;;;;;;;4922679;29;20056;-67
2021/12/12 11:17:50;;;;;;;12.13;11.13;;;;;;;;;;4933220;29;20036;-67
2021/12/12 11:20:24;;;;;;;12.07;11.20;;;;;;;;;;4929284;29;20043;-68
2021/12/12 11:22:56;;;;;;;12.70;11.57;;;;;;;;;;4930375;29;20039;-68
2021/12/12 11:25:39;;;;;;;12.35;11.55;;;;;;;;;;4928148;29;20110;-68
2021/12/12 11:28:25;;;;;;;12.40;11.50;;;;;;;;;;4928045;29;20227;-68
2021/12/12 11:30:57;;;;;;;12.15;11.25;;;;;;;;;;4929623;29;20038;-68
2021/12/12 11:33:25;;;;;;;12.15;11.35;;;;;;;;;;4927016;29;20086;-67
2021/12/12 11:35:55;;;;;;;13.55;12.48;;;;;;;;;;4928247;29;20046;-69
2021/12/12 11:38:32;;;;;;;12.95;12.05;;;;;;;;;;4928174;29;20043;-70
2021/12/12 11:41:20;;;;;;;12.43;11.63;;;;;;;;;;4933164;29;20047;-69
2021/12/12 11:44:13;;;;;;;12.55;11.75;;;;;;;;;;4900807;29;20051;-69
2021/12/12 11:46:47;;;;;;;11.93;11.13;;;;;;;;;;4926961;29;20031;-69
2021/12/12 11:49:22;;;;;;;11.85;11.05;;;;;;;;;;4925328;29;20039;-70
2021/12/12 11:52:09;;;;;;;12.82;11.88;;;;;;;;;;4911489;29;20087;-69
2021/12/12 11:54:58;;;;;;;11.93;11.02;;;;;;;;;;4927883;29;20047;-69
2021/12/12 11:57:33;;;;;;;11.45;10.60;;;;;;;;;;4927082;29;20094;-69
2021/12/12 12:00:04;;;;;;;12.30;11.30;;;;;;;;;;4927864;29;20031;-73
2021/12/12 12:02:51;;;;;;;12.23;11.23;;;;;;;;;;4928057;29;20044;-67
2021/12/12 12:05:35;;;;;;;11.55;10.68;;;;;;;;;;4925658;29;20035;-67
2021/12/12 12:08:17;;;;;;;12.20;11.30;;;;;;;;;;4925116;29;20039;-67
2021/12/12 12:10:54;;;;;;;12.75;11.60;;;;;;;;;;4928215;29;20081;-68
2021/12/12 12:13:57;;;;;;;12.10;11.30;;;;;;;;;;4920741;29;20043;-69
2021/12/12 12:16:58;;;;;;;12.68;11.75;;;;;;;;;;4928077;29;20808;-69
2021/12/12 12:19:32;;;;;;;13.48;12.43;;;;;;;;;;4927118;29;20051;-70
2021/12/12 12:22:12;;;;;;;12.32;11.52;;;;;;;;;;4920777;29;20051;-70
2021/12/12 12:24:56;;;;;;;13.65;12.55;;;;;;;;;;4928976;29;20043;-70
2021/12/12 12:27:40;;;;;;;11.10;10.30;;;;;;;;;;4927394;29;20046;-70
2021/12/12 12:30:30;;;;;;;10.70;10.00;;;;;;;;;;4929059;29;20106;-69
2021/12/12 12:33:24;;;;;;;11.05;10.35;;;;;;;;;;4923970;29;20402;-68
2021/12/12 12:36:17;;;;;;;12.60;11.60;;;;;;;;;;4928366;29;20540;-69
2021/12/12 12:39:21;;;;;;;13.93;12.60;;;;;;;;;;4926931;29;20558;-69
2021/12/12 12:42:01;;;;;;;11.75;11.05;;;;;;;;;;4948115;28;20067;-69
2021/12/12 12:44:30;;;;;;;11.55;10.75;;;;;;;;;;4929442;29;20050;-69
2021/12/12 12:47:27;;;;;;;10.98;10.23;;;;;;;;;;4931589;29;20035;-70
2021/12/12 12:50:31;;;;;;;12.15;11.05;;;;;;;;;;4934959;29;20063;-69
2021/12/12 12:53:18;;;;;;;10.95;10.23;;;;;;;;;;4899540;29;20627;-69
2021/12/12 12:56:06;;;;;;;10.90;10.20;;;;;;;;;;4910487;29;20052;-69
2021/12/12 12:58:50;;;;;;;11.45;10.65;;;;;;;;;;4901331;29;20044;-69
2021/12/12 13:01:34;;;;;;;12.13;11.23;;;;;;;;;;4894175;29;20115;-68
2021/12/12 13:04:02;;;;;;;11.65;10.85;;;;;;;;;;4908390;29;20047;-70
2021/12/12 13:06:47;;;;;;;11.03;10.23;;;;;;;;;;4903287;29;20385;-70
2021/12/12 13:09:47;;;;;;;11.48;10.57;;;;;;;;;;4899419;29;20329;-69
2021/12/12 13:12:26;;;;;;;12.00;11.10;;;;;;;;;;4851874;29;20049;-69
2021/12/12 13:14:57;;;;;;;;;;;;;;;;;;4849254;29;20112;-69
2021/12/12 13:17:42;;;;;;;12.00;11.00;;;;;;;;;;4853545;29;19930;-69
2021/12/12 13:20:26;;;;;;;11.80;10.98;;;;;;;;;;4848780;29;20563;-69
2021/12/12 13:23:08;;;;;;;11.73;10.90;;;;;;;;;;4852277;29;20054;-69
2021/12/12 13:25:41;;;;;;;12.32;11.23;;;;;;;;;;4853983;29;20081;-70
2021/12/12 13:28:21;;;;;;;12.27;11.27;;;;;;;;;;4871496;29;20531;-69
2021/12/12 13:31:06;;;;;;;12.00;11.10;;;;;;;;;;4871703;29;20029;-69
2021/12/12 13:33:46;;;;;;;12.00;11.00;;;;;;;;;;4879294;29;20140;-70
2021/12/12 13:36:24;;;;;;;11.32;10.48;;;;;;;;;;4871422;29;20437;-70
2021/12/12 13:39:07;;;;;;;12.10;11.10;;;;;;;;;;4875027;29;20159;-70
2021/12/12 13:41:51;;;;;;;11.32;10.52;;;;;;;;;;4873706;29;20323;-70
2021/12/12 13:44:33;;;;;;;10.57;9.88;;;;;;;;;;4871640;29;20061;-70
2021/12/12 13:47:31;;;;;;;11.32;10.50;;;;;;;;;;4878485;29;20048;-70
2021/12/12 13:50:09;;;;;;;10.80;10.05;;;;;;;;;;4925734;29;20051;-69
2021/12/12 13:53:03;;;;;;;11.02;10.23;;;;;;;;;;4930079;29;20062;-70
2021/12/12 13:55:44;;;;;;;11.40;10.40;;;;;;;;;;4937689;29;20043;-70
2021/12/12 13:58:47;;;;;;;11.30;10.50;;;;;;;;;;4925958;29;20043;-70
2021/12/12 14:01:20;;;;;;;11.07;10.30;;;;;;;;;;4930083;29;20048;-71
2021/12/12 14:03:52;;;;;;;10.50;9.57;;;;;;;;;;4943830;29;20050;-69
2021/12/12 14:06:21;;;;;;;10.65;9.88;;;;;;;;;;4932104;29;20078;-71
2021/12/12 14:08:53;;;;;;;11.15;10.20;;;;;;;;;;4947220;29;20035;-70
2021/12/12 14:11:26;;;;;;;10.73;9.82;;;;;;;;;;4939329;29;20043;-70
2021/12/12 14:13:57;;;;;;;10.65;9.93;;;;;;;;;;4945443;28;20039;-70
2021/12/12 14:16:37;;;;;;;10.27;9.57;;;;;;;;;;4931338;29;20040;-71
2021/12/12 14:19:11;;;;;;;10.68;9.98;;;;;;;;;;4934163;29;20042;-69
2021/12/12 14:21:39;;;;;;;11.20;10.40;;;;;;;;;;4932265;29;20054;-70
2021/12/12 14:24:07;;;;;;;10.98;10.18;;;;;;;;;;4931230;29;20059;-71
2021/12/12 14:26:37;;;;;;;11.27;10.38;;;;;;;;;;4930424;29;20033;-70
2021/12/12 14:29:09;;;;;;;10.60;9.80;;;;;;;;;;4934940;29;20495;-70
2021/12/12 14:31:41;;;;;;;12.35;11.30;;;;;;;;;;4931227;29;20368;-70
2021/12/12 14:34:23;;;;;;;12.15;11.27;;;;;;;;;;4928871;29;20036;-70
2021/12/12 14:36:51;;;;;;;12.95;11.85;;;;;;;;;;4943121;29;20044;-69
2021/12/12 14:39:21;;;;;;;12.73;11.77;;;;;;;;;;4931021;29;20051;-70
2021/12/12 14:41:56;;;;;;;;;;;;;;;;;;4931397;29;20043;-70
2021/12/12 14:44:29;;;;;;;13.55;12.27;;;;;;;;;;4936162;29;19925;-69
2021/12/12 14:47:01;;;;;;;13.05;11.95;;;;;;;;;;4927969;29;20043;-70
2021/12/12 14:49:34;;;;;;;11.48;10.68;;;;;;;;;;4930772;29;20106;-70
2021/12/12 14:52:24;;;;;;;12.05;10.93;;;;;;;;;;4930347;29;20399;-70
2021/12/12 14:54:59;;;;;;;11.50;10.75;;;;;;;;;;4933943;29;20039;-70
2021/12/12 14:57:33;;;;;;;11.07;10.38;;;;;;;;;;4933145;29;20122;-70
2021/12/12 15:00:07;;;;;;;12.10;11.18;;;;;;;;;;4930277;29;20106;-70
2021/12/12 15:02:45;;;;;;;13.32;12.32;;;;;;;;;;4928314;29;20522;-70
2021/12/12 15:05:25;;;;;;;12.82;11.52;;;;;;;;;;4933122;29;20465;-70
2021/12/12 15:07:54;;;;;;;13.15;11.98;;;;;;;;;;4930486;29;20063;-70
2021/12/12 15:10:32;;;;;;;13.15;12.05;;;;;;;;;;4930029;29;20047;-70
2021/12/12 15:13:09;;;;;;;14.88;13.00;;;;;;;;;;4930673;29;20043;-70
2021/12/12 15:15:46;;;;;;;12.52;11.52;;;;;;;;;;4932788;29;20043;-69
2021/12/12 15:18:13;;;;;;;13.23;11.98;;;;;;;;;;4930491;29;20304;-69